Terminal Aerodrome Forecast
Issued by NWS

Home | Current Version | Previous Version | Text Only | Print | Product List | Glossary On
Versions: 1 2 3 4 5 6 7 8 9 10 11 12 13 14 15 16 17 18 19 20 21 22 23 24 25 26 27 28 29 30 31 32 33 34 35
000
FTUS41 KBOX 220542
TAFBED
TAF
KBED 220542Z 2206/2306 01010KT 6SM BR OVC004
     FM221500 02013KT 2SM BR OVC008
     FM221900 02014KT 2SM -SHRA BR OVC008
     FM230300 03015KT 1SM +SHRA BR OVC003 WS020/04040KT=

USA.gov is the U.S. government's official web portal to all federal, state and local government web resources and services.